Rayle, Georgia
Current Conditions -  °F | °C
As of 9:35 PM on Wednesday 22 Oct 2014 (Local Time) from KIIY Reporting Station
Clear Clear  
Wind Chill: 57°   Ceiling: Unl
Heat Index: 57°   Visibility: 10mi
Dew Point: 48°   Wind: 5mph
Humidity: 72%   Direction: 30°NNE
Pressure: 30.1"   Gusts: NA
Location:  33.79°N, 82.9°W
Report Text: KIIY 230135Z AUTO 03004KT 10SM CLR 14/09 A3010 RMK AO2
Loading
Personal Weather Stations






























Interactive Weather Map
Tropical Storm Tracking
New forecast layout! Learn more

10-Day Weather Forecast

Advertisements
Track Severe Weather on mobile